EWG71N EDDK-EDDH
Flight info
| Callsign | EWG71N |
|---|---|
| Flight time | 1h 0m |
| Altitude | 35000 |
| Route | PODIP9F/13L PODIP Y867 PELUN DCT ANZIV DCT WRB Y867 TOLGI DCT SAS/N0452F340 P605 NOLGO NOLGO6A |
| Aircraft | A20N/M-V/N |
Departure
| Time | 2026-04-30 19:02 |
|---|---|
| Airport | Cologne Bonn Airport (EDDK) |
Arrival
| Time | 2026-04-30 20:03 |
|---|---|
| Airport | Hamburg Helmut Schmidt Airport (EDDH) |
| Time | Latitude | Longitude | Altitude | Speed | Heading |
|---|---|---|---|---|---|
| 2026-04-30 18:45 | 50.87806 | 7.12402 | 232 ft | 0 kts | 288° |
| 2026-04-30 18:53 | 50.87803 | 7.12415 | 230 ft | 2 kts | 287° |
| 2026-04-30 18:53 | 50.87798 | 7.12440 | 231 ft | 2 kts | 289° |
| 2026-04-30 18:53 | 50.87792 | 7.12465 | 231 ft | 2 kts | 290° |
| 2026-04-30 18:54 | 50.87786 | 7.12489 | 231 ft | 2 kts | 292° |
| 2026-04-30 18:54 | 50.87780 | 7.12513 | 230 ft | 2 kts | 296° |
| 2026-04-30 18:54 | 50.87772 | 7.12536 | 231 ft | 2 kts | 312° |
| 2026-04-30 18:54 | 50.87758 | 7.12545 | 231 ft | 2 kts | 19° |
| 2026-04-30 18:55 | 50.87742 | 7.12537 | 232 ft | 2 kts | 18° |
| 2026-04-30 18:55 | 50.87725 | 7.12529 | 230 ft | 0 kts | 17° |
| 2026-04-30 18:59 | 50.87760 | 7.12546 | 231 ft | 9 kts | 17° |
| 2026-04-30 19:00 | 50.87968 | 7.12684 | 231 ft | 0 kts | 49° |
| 2026-04-30 19:00 | 50.87972 | 7.12692 | 231 ft | 4 kts | 49° |
| 2026-04-30 19:01 | 50.87973 | 7.13005 | 239 ft | 23 kts | 128° |
| 2026-04-30 19:01 | 50.87738 | 7.13363 | 246 ft | 80 kts | 137° |
| 2026-04-30 19:02 | 50.86385 | 7.15250 | 504 ft | 160 kts | 137° |
| 2026-04-30 19:02 | 50.84517 | 7.17825 | 1436 ft | 198 kts | 136° |
| 2026-04-30 19:03 | 50.82514 | 7.20923 | 2959 ft | 212 kts | 126° |
| 2026-04-30 19:03 | 50.81147 | 7.25395 | 4489 ft | 239 kts | 104° |
| 2026-04-30 19:04 | 50.80742 | 7.30757 | 6388 ft | 251 kts | 97° |
| 2026-04-30 19:04 | 50.80371 | 7.36342 | 8272 ft | 260 kts | 98° |
| 2026-04-30 19:05 | 50.79891 | 7.42086 | 10191 ft | 268 kts | 98° |
| 2026-04-30 19:05 | 50.79346 | 7.48246 | 11184 ft | 305 kts | 98° |
| 2026-04-30 19:06 | 50.78771 | 7.55203 | 12454 ft | 326 kts | 91° |
| 2026-04-30 19:06 | 50.79089 | 7.58703 | 13267 ft | 331 kts | 72° |
| 2026-04-30 19:06 | 50.81303 | 7.63734 | 14205 ft | 342 kts | 45° |
| 2026-04-30 19:07 | 50.85481 | 7.69547 | 15084 ft | 346 kts | 44° |
| 2026-04-30 19:07 | 50.86493 | 7.70950 | 15575 ft | 346 kts | 44° |
| 2026-04-30 19:08 | 50.90649 | 7.76789 | 17256 ft | 354 kts | 44° |
| 2026-04-30 19:08 | 50.93647 | 7.81323 | 18510 ft | 357 kts | 51° |
| 2026-04-30 19:08 | 50.95152 | 7.84404 | 19125 ft | 359 kts | 58° |
| 2026-04-30 19:09 | 50.97722 | 7.91271 | 20362 ft | 365 kts | 61° |
| 2026-04-30 19:09 | 50.99017 | 7.94763 | 20956 ft | 369 kts | 61° |
| 2026-04-30 19:09 | 51.00326 | 7.98293 | 21574 ft | 372 kts | 61° |
| 2026-04-30 19:10 | 51.02973 | 8.05455 | 22756 ft | 379 kts | 61° |
| 2026-04-30 19:10 | 51.05662 | 8.12763 | 23915 ft | 386 kts | 61° |
| 2026-04-30 19:11 | 51.07022 | 8.16469 | 24255 ft | 390 kts | 61° |
| 2026-04-30 19:11 | 51.09752 | 8.23923 | 24382 ft | 390 kts | 61° |
| 2026-04-30 19:11 | 51.11113 | 8.27658 | 24403 ft | 391 kts | 61° |
| 2026-04-30 19:12 | 51.12476 | 8.31417 | 24831 ft | 393 kts | 61° |
| 2026-04-30 19:12 | 51.13842 | 8.35191 | 25362 ft | 394 kts | 61° |
| 2026-04-30 19:12 | 51.15214 | 8.38987 | 25828 ft | 397 kts | 60° |
| 2026-04-30 19:13 | 51.17989 | 8.46681 | 26743 ft | 403 kts | 60° |
| 2026-04-30 19:13 | 51.20997 | 8.54279 | 27588 ft | 409 kts | 52° |
| 2026-04-30 19:13 | 51.22830 | 8.57777 | 28003 ft | 412 kts | 50° |
| 2026-04-30 19:14 | 51.24680 | 8.61288 | 28408 ft | 415 kts | 50° |
| 2026-04-30 19:14 | 51.26539 | 8.64836 | 28800 ft | 418 kts | 50° |
| 2026-04-30 19:14 | 51.28402 | 8.68404 | 29208 ft | 420 kts | 50° |
| 2026-04-30 19:14 | 51.30276 | 8.71996 | 29551 ft | 423 kts | 50° |
| 2026-04-30 19:15 | 51.32164 | 8.75618 | 29922 ft | 425 kts | 50° |
| 2026-04-30 19:15 | 51.35971 | 8.82931 | 30610 ft | 430 kts | 50° |
| 2026-04-30 19:15 | 51.37895 | 8.86572 | 30929 ft | 432 kts | 46° |
| 2026-04-30 19:16 | 51.40146 | 8.89679 | 31234 ft | 434 kts | 34° |
| 2026-04-30 19:16 | 51.42815 | 8.91965 | 31565 ft | 437 kts | 22° |
| 2026-04-30 19:16 | 51.48592 | 8.94979 | 32296 ft | 436 kts | 18° |
| 2026-04-30 19:17 | 51.51472 | 8.96463 | 32400 ft | 434 kts | 19° |
| 2026-04-30 19:17 | 51.59945 | 9.01330 | 32406 ft | 433 kts | 21° |
| 2026-04-30 19:18 | 51.68409 | 9.06419 | 32408 ft | 433 kts | 21° |
| 2026-04-30 19:19 | 51.74049 | 9.09819 | 32410 ft | 433 kts | 21° |
| 2026-04-30 19:19 | 51.82502 | 9.14927 | 32407 ft | 433 kts | 21° |
| 2026-04-30 19:20 | 51.85311 | 9.16629 | 32296 ft | 430 kts | 21° |
| 2026-04-30 19:20 | 51.88107 | 9.18326 | 31830 ft | 428 kts | 21° |
| 2026-04-30 19:20 | 51.93688 | 9.21719 | 30439 ft | 428 kts | 21° |
| 2026-04-30 19:21 | 51.96467 | 9.23411 | 29775 ft | 424 kts | 21° |
| 2026-04-30 19:21 | 52.01927 | 9.26741 | 28534 ft | 415 kts | 21° |
| 2026-04-30 19:22 | 52.07279 | 9.30013 | 27326 ft | 407 kts | 22° |
| 2026-04-30 19:22 | 52.15111 | 9.34819 | 25642 ft | 395 kts | 22° |
| 2026-04-30 19:23 | 52.22795 | 9.39555 | 25405 ft | 396 kts | 22° |
| 2026-04-30 19:24 | 52.27940 | 9.42736 | 25412 ft | 395 kts | 22° |
| 2026-04-30 19:24 | 52.30494 | 9.44317 | 25222 ft | 392 kts | 22° |
| 2026-04-30 19:24 | 52.35564 | 9.47461 | 24287 ft | 387 kts | 22° |
| 2026-04-30 19:25 | 52.43026 | 9.52103 | 22477 ft | 378 kts | 22° |
| 2026-04-30 19:26 | 52.47900 | 9.55144 | 21289 ft | 372 kts | 23° |
| 2026-04-30 19:26 | 52.52666 | 9.58124 | 20153 ft | 367 kts | 23° |
| 2026-04-30 19:26 | 52.55072 | 9.59632 | 19599 ft | 364 kts | 23° |
| 2026-04-30 19:27 | 52.59743 | 9.62563 | 18493 ft | 359 kts | 24° |
| 2026-04-30 19:27 | 52.64413 | 9.65500 | 17307 ft | 354 kts | 24° |
| 2026-04-30 19:28 | 52.66703 | 9.66943 | 16741 ft | 352 kts | 24° |
| 2026-04-30 19:28 | 52.71222 | 9.69797 | 15690 ft | 347 kts | 24° |
| 2026-04-30 19:29 | 52.75709 | 9.72638 | 15429 ft | 348 kts | 24° |
| 2026-04-30 19:29 | 52.77971 | 9.74073 | 15428 ft | 348 kts | 24° |
| 2026-04-30 19:30 | 52.84737 | 9.78371 | 15427 ft | 347 kts | 24° |
| 2026-04-30 19:30 | 52.89250 | 9.81246 | 15425 ft | 347 kts | 24° |
| 2026-04-30 19:31 | 52.93757 | 9.84124 | 15427 ft | 347 kts | 24° |
| 2026-04-30 19:31 | 52.96015 | 9.85568 | 15431 ft | 347 kts | 24° |
| 2026-04-30 19:31 | 53.00519 | 9.88453 | 15431 ft | 347 kts | 24° |
| 2026-04-30 19:32 | 53.02773 | 9.89900 | 15432 ft | 347 kts | 24° |
| 2026-04-30 19:32 | 53.05022 | 9.91346 | 15427 ft | 347 kts | 24° |
| 2026-04-30 19:32 | 53.07273 | 9.92793 | 15427 ft | 347 kts | 24° |
| 2026-04-30 19:32 | 53.09524 | 9.94243 | 15427 ft | 347 kts | 24° |
| 2026-04-30 19:33 | 53.11777 | 9.95697 | 15428 ft | 347 kts | 24° |
| 2026-04-30 19:33 | 53.14030 | 9.97151 | 15429 ft | 347 kts | 24° |
| 2026-04-30 19:33 | 53.16277 | 9.98603 | 15429 ft | 347 kts | 24° |
| 2026-04-30 19:33 | 53.18529 | 10.00060 | 15427 ft | 347 kts | 24° |
| 2026-04-30 19:34 | 53.20779 | 10.01517 | 15431 ft | 347 kts | 24° |
| 2026-04-30 19:34 | 53.23025 | 10.02973 | 15428 ft | 342 kts | 24° |
| 2026-04-30 19:34 | 53.27245 | 10.05703 | 15427 ft | 308 kts | 24° |
| 2026-04-30 19:35 | 53.29187 | 10.06963 | 15426 ft | 292 kts | 24° |
| 2026-04-30 19:35 | 53.31030 | 10.08161 | 15427 ft | 276 kts | 25° |
| 2026-04-30 19:35 | 53.32768 | 10.09293 | 15430 ft | 260 kts | 25° |
| 2026-04-30 19:35 | 53.34410 | 10.10363 | 15428 ft | 249 kts | 25° |
| 2026-04-30 19:36 | 53.36029 | 10.11427 | 15431 ft | 254 kts | 25° |
| 2026-04-30 19:36 | 53.37674 | 10.12508 | 15428 ft | 253 kts | 25° |
| 2026-04-30 19:36 | 53.40984 | 10.14496 | 15424 ft | 256 kts | 11° |
| 2026-04-30 19:37 | 53.42779 | 10.14170 | 15430 ft | 268 kts | 343° |
| 2026-04-30 19:37 | 53.44363 | 10.12454 | 15427 ft | 278 kts | 317° |
| 2026-04-30 19:37 | 53.45417 | 10.09708 | 15423 ft | 286 kts | 292° |
| 2026-04-30 19:37 | 53.45702 | 10.06399 | 15427 ft | 291 kts | 265° |
| 2026-04-30 19:38 | 53.45107 | 10.03179 | 15429 ft | 290 kts | 237° |
| 2026-04-30 19:38 | 53.43753 | 10.00728 | 15373 ft | 287 kts | 210° |
| 2026-04-30 19:38 | 53.41957 | 9.99341 | 15081 ft | 285 kts | 196° |
| 2026-04-30 19:38 | 53.40089 | 9.98187 | 14674 ft | 287 kts | 196° |
| 2026-04-30 19:39 | 53.38208 | 9.97029 | 14269 ft | 289 kts | 196° |
| 2026-04-30 19:39 | 53.36322 | 9.95858 | 13832 ft | 290 kts | 195° |
| 2026-04-30 19:39 | 53.34370 | 9.95343 | 13381 ft | 281 kts | 170° |
| 2026-04-30 19:39 | 53.32540 | 9.96232 | 12950 ft | 271 kts | 145° |
| 2026-04-30 19:40 | 53.31143 | 9.98248 | 12518 ft | 264 kts | 122° |
| 2026-04-30 19:40 | 53.30370 | 10.00972 | 12090 ft | 259 kts | 100° |
| 2026-04-30 19:40 | 53.30305 | 10.03945 | 11678 ft | 257 kts | 79° |
| 2026-04-30 19:40 | 53.30941 | 10.06677 | 11479 ft | 250 kts | 57° |
| 2026-04-30 19:41 | 53.32103 | 10.08727 | 11426 ft | 238 kts | 37° |
| 2026-04-30 19:41 | 53.33577 | 10.09931 | 11437 ft | 240 kts | 24° |
| 2026-04-30 19:41 | 53.35154 | 10.10909 | 11429 ft | 242 kts | 24° |
| 2026-04-30 19:41 | 53.36717 | 10.11884 | 11327 ft | 239 kts | 24° |
| 2026-04-30 19:42 | 53.38272 | 10.12855 | 11026 ft | 238 kts | 24° |
| 2026-04-30 19:42 | 53.39823 | 10.13827 | 10700 ft | 239 kts | 24° |
| 2026-04-30 19:42 | 53.41404 | 10.14825 | 10214 ft | 245 kts | 24° |
| 2026-04-30 19:42 | 53.43002 | 10.15839 | 9843 ft | 245 kts | 24° |
| 2026-04-30 19:43 | 53.44589 | 10.16847 | 9511 ft | 243 kts | 24° |
| 2026-04-30 19:43 | 53.46173 | 10.17851 | 9163 ft | 243 kts | 24° |
| 2026-04-30 19:43 | 53.47747 | 10.18848 | 8841 ft | 241 kts | 24° |
| 2026-04-30 19:44 | 53.50889 | 10.20755 | 8187 ft | 242 kts | 13° |
| 2026-04-30 19:44 | 53.52576 | 10.20568 | 7838 ft | 249 kts | 343° |
| 2026-04-30 19:44 | 53.54029 | 10.18953 | 7496 ft | 256 kts | 316° |
| 2026-04-30 19:44 | 53.55220 | 10.16721 | 7184 ft | 256 kts | 314° |
| 2026-04-30 19:45 | 53.56382 | 10.14468 | 6903 ft | 255 kts | 308° |
| 2026-04-30 19:45 | 53.57074 | 10.11728 | 6551 ft | 258 kts | 277° |
| 2026-04-30 19:45 | 53.56888 | 10.08774 | 6234 ft | 255 kts | 246° |
| 2026-04-30 19:45 | 53.55949 | 10.06295 | 5929 ft | 251 kts | 229° |
| 2026-04-30 19:46 | 53.54868 | 10.04012 | 5653 ft | 249 kts | 229° |
| 2026-04-30 19:46 | 53.53794 | 10.01754 | 5460 ft | 244 kts | 229° |
| 2026-04-30 19:46 | 53.52726 | 9.99514 | 5429 ft | 249 kts | 229° |
| 2026-04-30 19:46 | 53.51647 | 9.97253 | 5427 ft | 247 kts | 229° |
| 2026-04-30 19:47 | 53.50574 | 9.95002 | 5425 ft | 247 kts | 229° |
| 2026-04-30 19:47 | 53.49862 | 9.93512 | 5426 ft | 247 kts | 229° |
| 2026-04-30 19:47 | 53.48435 | 9.90517 | 5275 ft | 244 kts | 229° |
| 2026-04-30 19:47 | 53.47375 | 9.88297 | 5038 ft | 242 kts | 229° |
| 2026-04-30 19:48 | 53.46317 | 9.86085 | 4996 ft | 244 kts | 229° |
| 2026-04-30 19:48 | 53.45252 | 9.83863 | 4995 ft | 244 kts | 229° |
| 2026-04-30 19:48 | 53.44188 | 9.81646 | 4998 ft | 243 kts | 229° |
| 2026-04-30 19:48 | 53.43125 | 9.79426 | 4998 ft | 244 kts | 229° |
| 2026-04-30 19:49 | 53.42064 | 9.77208 | 4999 ft | 244 kts | 229° |
| 2026-04-30 19:49 | 53.39938 | 9.72764 | 4992 ft | 244 kts | 229° |
| 2026-04-30 19:49 | 53.38877 | 9.70546 | 4995 ft | 244 kts | 229° |
| 2026-04-30 19:50 | 53.37815 | 9.68329 | 4994 ft | 244 kts | 229° |
| 2026-04-30 19:50 | 53.36755 | 9.66114 | 4999 ft | 244 kts | 229° |
| 2026-04-30 19:50 | 53.35697 | 9.63895 | 4990 ft | 244 kts | 229° |
| 2026-04-30 19:50 | 53.34638 | 9.61671 | 4997 ft | 244 kts | 229° |
| 2026-04-30 19:51 | 53.33583 | 9.59458 | 4993 ft | 243 kts | 229° |
| 2026-04-30 19:51 | 53.32527 | 9.57238 | 4990 ft | 244 kts | 229° |
| 2026-04-30 19:51 | 53.31486 | 9.55053 | 4999 ft | 243 kts | 229° |
| 2026-04-30 19:51 | 53.30432 | 9.52840 | 4991 ft | 243 kts | 229° |
| 2026-04-30 19:52 | 53.29381 | 9.50628 | 4990 ft | 243 kts | 230° |
| 2026-04-30 19:52 | 53.28644 | 9.48085 | 4985 ft | 247 kts | 259° |
| 2026-04-30 19:52 | 53.28760 | 9.45238 | 4993 ft | 250 kts | 290° |
| 2026-04-30 19:52 | 53.29710 | 9.42856 | 4989 ft | 247 kts | 322° |
| 2026-04-30 19:53 | 53.31222 | 9.41621 | 4991 ft | 242 kts | 354° |
| 2026-04-30 19:53 | 53.32851 | 9.41854 | 4991 ft | 234 kts | 26° |
| 2026-04-30 19:53 | 53.33826 | 9.42695 | 4988 ft | 233 kts | 35° |
| 2026-04-30 19:53 | 53.35030 | 9.44450 | 4988 ft | 229 kts | 50° |
| 2026-04-30 19:54 | 53.36102 | 9.46417 | 4993 ft | 229 kts | 51° |
| 2026-04-30 19:54 | 53.37162 | 9.48398 | 4994 ft | 228 kts | 51° |
| 2026-04-30 19:54 | 53.38220 | 9.50385 | 4993 ft | 229 kts | 51° |
| 2026-04-30 19:54 | 53.39275 | 9.52371 | 4990 ft | 228 kts | 51° |
| 2026-04-30 19:55 | 53.40329 | 9.54360 | 4997 ft | 229 kts | 51° |
| 2026-04-30 19:55 | 53.41368 | 9.56329 | 4995 ft | 228 kts | 51° |
| 2026-04-30 19:55 | 53.42431 | 9.58349 | 4997 ft | 228 kts | 51° |
| 2026-04-30 19:55 | 53.43477 | 9.60340 | 4993 ft | 228 kts | 51° |
| 2026-04-30 19:56 | 53.44523 | 9.62341 | 4996 ft | 228 kts | 51° |
| 2026-04-30 19:56 | 53.45570 | 9.64349 | 4948 ft | 229 kts | 51° |
| 2026-04-30 19:56 | 53.46616 | 9.66362 | 4697 ft | 229 kts | 51° |
| 2026-04-30 19:56 | 53.47656 | 9.68371 | 4387 ft | 227 kts | 51° |
| 2026-04-30 19:57 | 53.48685 | 9.70366 | 4087 ft | 225 kts | 51° |
| 2026-04-30 19:57 | 53.49697 | 9.72332 | 3779 ft | 217 kts | 51° |
| 2026-04-30 19:57 | 53.50630 | 9.74145 | 3533 ft | 192 kts | 51° |
| 2026-04-30 19:57 | 53.51459 | 9.75756 | 3272 ft | 179 kts | 51° |
| 2026-04-30 19:58 | 53.52239 | 9.77276 | 3016 ft | 161 kts | 51° |
| 2026-04-30 19:58 | 53.52939 | 9.78642 | 2816 ft | 153 kts | 51° |
| 2026-04-30 19:58 | 53.53631 | 9.80000 | 2608 ft | 150 kts | 52° |
| 2026-04-30 19:58 | 53.54274 | 9.81262 | 2418 ft | 136 kts | 52° |
| 2026-04-30 19:59 | 53.54878 | 9.82450 | 2230 ft | 134 kts | 52° |
| 2026-04-30 19:59 | 53.55482 | 9.83632 | 2048 ft | 132 kts | 51° |
| 2026-04-30 19:59 | 53.56664 | 9.85956 | 1699 ft | 132 kts | 52° |
| 2026-04-30 20:00 | 53.57246 | 9.87127 | 1516 ft | 130 kts | 53° |
| 2026-04-30 20:00 | 53.57826 | 9.88300 | 1370 ft | 131 kts | 52° |
| 2026-04-30 20:00 | 53.58402 | 9.89463 | 1194 ft | 129 kts | 53° |
| 2026-04-30 20:00 | 53.58978 | 9.90626 | 1018 ft | 129 kts | 52° |
| 2026-04-30 20:01 | 53.60124 | 9.92945 | 646 ft | 128 kts | 51° |
| 2026-04-30 20:01 | 53.60699 | 9.94092 | 486 ft | 128 kts | 51° |
| 2026-04-30 20:01 | 53.61272 | 9.95240 | 333 ft | 128 kts | 51° |
| 2026-04-30 20:02 | 53.62394 | 9.97518 | 47 ft | 120 kts | 51° |
| 2026-04-30 20:02 | 53.62828 | 9.98398 | 50 ft | 69 kts | 50° |
| 2026-04-30 20:03 | 53.63090 | 9.99069 | 50 ft | 24 kts | 83° |
| 2026-04-30 20:03 | 53.63088 | 9.99214 | 50 ft | 5 kts | 94° |
| 2026-04-30 20:03 | 53.63087 | 9.99235 | 50 ft | 4 kts | 94° |
| 2026-04-30 20:03 | 53.63085 | 9.99283 | 50 ft | 3 kts | 93° |
| 2026-04-30 20:04 | 53.63085 | 9.99284 | 50 ft | 0 kts | 93° |
| 2026-04-30 20:05 | 53.63085 | 9.99350 | 50 ft | 8 kts | 81° |
| 2026-04-30 20:06 | 53.63089 | 9.99369 | 50 ft | 0 kts | 67° |
| 2026-04-30 20:08 | 53.63096 | 9.99390 | 48 ft | 6 kts | 62° |
| 2026-04-30 20:08 | 53.63143 | 9.99508 | 49 ft | 18 kts | 53° |
| 2026-04-30 20:08 | 53.63219 | 9.99659 | 50 ft | 8 kts | 50° |
| 2026-04-30 20:09 | 53.63224 | 9.99670 | 50 ft | 0 kts | 50° |
| 2026-04-30 20:09 | 53.63225 | 9.99671 | 50 ft | 1 kts | 50° |
| 2026-04-30 20:09 | 53.63153 | 9.99825 | 50 ft | 18 kts | 150° |
| 2026-04-30 20:10 | 53.62994 | 9.99964 | 48 ft | 0 kts | 153° |
| 2026-04-30 20:11 | 53.62979 | 9.99976 | 50 ft | 5 kts | 153° |
| 2026-04-30 20:12 | 53.62857 | 10.00062 | 50 ft | 13 kts | 159° |
| 2026-04-30 20:12 | 53.62782 | 10.00134 | 50 ft | 7 kts | 123° |
| 2026-04-30 20:12 | 53.62793 | 10.00197 | 50 ft | 4 kts | 62° |
| 2026-04-30 20:13 | 53.62806 | 10.00237 | 49 ft | 1 kts | 63° |
| 2026-04-30 20:13 | 53.62808 | 10.00244 | 50 ft | 0 kts | 64° |